This is the latest recevied weather packets stored in our database for station/object K3HW. If no packets are shown the sender has not sent any weather packets the latest 10 day(s).
| Time | Temp. | Humidity | Pressure | Rain* | Wind** | Luminosity | Snow |
|---|---|---|---|---|---|---|---|
| 1777958127 | 16.67° C | 58% | 1013.9 hPa | 0 mm | - | 0 W/m² | - |
| 1777957826 | 16.67° C | 58% | 1013.7 hPa | 0 mm | - | 0 W/m² | - |
| 1777957524 | 16.67° C | 57% | 1013.7 hPa | 0 mm | - | 0 W/m² | - |
| 1777956917 | 16.67° C | 57% | 1013.9 hPa | 0 mm | - | 0 W/m² | - |
| 1777956614 | 16.11° C | 58% | 1013.9 hPa | 0 mm | - | 0 W/m² | - |
| 1777956312 | 16.67° C | 57% | 1013.7 hPa | 0 mm | - | 0 W/m² | - |
| 1777956008 | 16.67° C | 57% | 1014 hPa | 0 mm | - | 0 W/m² | - |
| 1777955704 | 16.67° C | 56% | 1013.7 hPa | 0 mm | - | 0 W/m² | - |
| 1777955401 | 16.67° C | 56% | 1013.9 hPa | 0 mm | - | 0 W/m² | - |
| 1777955097 | 16.67° C | 55% | 1013.7 hPa | 0 mm | - | 0 W/m² | - |
| 1777954794 | 16.67° C | 56% | 1013.9 hPa | 0 mm | - | 0 W/m² | - |
| 1777954491 | 17.22° C | 54% | 1013.6 hPa | 0 mm | - | 0 W/m² | - |
| 1777954188 | 17.22° C | 54% | 1013.6 hPa | 0 mm | - | 0 W/m² | - |
| 1777953886 | 16.67° C | 54% | 1013.6 hPa | 0 mm | - | 0 W/m² | - |
| 1777943581 | 15.56° C | 57% | 1013.6 hPa | 0 mm | - | 0 W/m² | - |
| 1777943276 | 16.11° C | 56% | 1013.7 hPa | 0 mm | - | 0 W/m² | - |
| 1777940548 | 18.89° C | 47% | 1013.4 hPa | 0 mm | - | 0 W/m² | - |
| 1777939034 | 19.44° C | 43% | 1013 hPa | 0 mm | - | 2 W/m² | - |
| 1777938730 | 20° C | 44% | 1012.9 hPa | 0 mm | - | 3 W/m² | - |
| 1777936911 | 21.11° C | 40% | 1013 hPa | 0 mm | - | 13 W/m² | - |
| 1777934790 | 22.22° C | 38% | 1012.7 hPa | 0 mm | - | 26 W/m² | - |
| 1777933274 | 22.22° C | 37% | 1013.1 hPa | 0 mm | - | 52 W/m² | - |
| 1777932971 | 22.78° C | 37% | 1013.1 hPa | 0 mm | - | 95 W/m² | - |
| 1777932668 | 22.78° C | 38% | 1013.2 hPa | 0 mm | - | 50 W/m² | - |
| 1777932364 | 22.22° C | 38% | 1013.2 hPa | 0 mm | - | 83 W/m² | - |
* Rain latest hour (hover to see other rain measurements)
** Current wind speed in m/s (hover to see current wind gust speed)